Time,TemperatureF,DewpointF,PressureIn,WindDirection,WindDirectionDegrees,WindSpeedMPH,WindSpeedGustMPH,Humidity,HourlyPrecipIn,Conditions,Clouds,dailyrainin,SoftwareType,DateUTC
2013-02-16 00:02:00,26.2,25.5,30.22,North,-999,-999.0,-999.0,97,-99.99,,,-99.99,meteohub,2013-02-16 06:02:00,
2013-02-16 00:08:00,26.2,25.5,30.23,North,-999,-999.0,-999.0,97,-99.99,,,-99.99,meteohub,2013-02-16 06:08:00,
2013-02-16 00:14:00,26.1,25.3,30.22,North,-999,-999.0,-999.0,97,-99.99,,,-99.99,meteohub,2013-02-16 06:14:00,
2013-02-16 00:20:00,26.1,25.5,30.22,North,-999,-999.0,-999.0,98,-99.99,,,-99.99,meteohub,2013-02-16 06:20:00,
2013-02-16 00:26:00,26.1,25.3,30.23,North,-999,-999.0,-999.0,97,-99.99,,,-99.99,meteohub,2013-02-16 06:26:00,
2013-02-16 00:32:00,26.1,25.5,30.23,North,-999,-999.0,-999.0,98,-99.99,,,-99.99,meteohub,2013-02-16 06:32:00,
2013-02-16 00:37:00,25.9,25.3,30.23,North,-999,-999.0,-999.0,98,-99.99,,,-99.99,meteohub,2013-02-16 06:37:00,
2013-02-16 00:42:00,25.9,25.3,30.23,North,-999,-999.0,-999.0,98,-99.99,,,-99.99,meteohub,2013-02-16 06:42:00,
2013-02-16 00:47:00,25.9,25.3,30.23,North,-999,-999.0,-999.0,98,-99.99,,,-99.99,meteohub,2013-02-16 06:47:00,
2013-02-16 00:52:00,25.9,25.3,30.24,North,-999,-999.0,-999.0,98,-99.99,,,-99.99,meteohub,2013-02-16 06:52:00,
2013-02-16 01:00:00,25.5,25.0,30.24,North,-999,-999.0,-999.0,98,-99.99,,,-99.99,meteohub,2013-02-16 07:00:00,
2013-02-16 07:42:00,20.3,20.1,30.24,North,-999,-999.0,-999.0,99,-99.99,,,-99.99,meteohub,2013-02-16 13:42:00,
2013-02-16 07:48:00,20.7,20.5,30.23,North,-999,-999.0,-999.0,99,-99.99,,,-99.99,meteohub,2013-02-16 13:48:00,
2013-02-16 07:54:00,21.0,20.8,30.24,North,-999,-999.0,-999.0,99,-99.99,,,-99.99,meteohub,2013-02-16 13:54:00,
2013-02-16 08:00:00,21.2,21.0,30.24,North,-999,-999.0,-999.0,99,-99.99,,,-99.99,meteohub,2013-02-16 14:00:00,
2013-02-16 08:07:00,21.7,21.6,30.25,North,-999,-999.0,-999.0,99,-99.99,,,-99.99,meteohub,2013-02-16 14:07:00,
2013-02-16 08:12:00,22.3,22.1,30.24,North,-999,-999.0,-999.0,99,-99.99,,,-99.99,meteohub,2013-02-16 14:12:00,
2013-02-16 08:19:00,22.6,22.5,30.24,North,-999,-999.0,-999.0,99,-99.99,,,-99.99,meteohub,2013-02-16 14:19:00,
2013-02-16 08:26:00,23.2,23.0,30.24,North,-999,-999.0,-999.0,99,-99.99,,,-99.99,meteohub,2013-02-16 14:26:00,
2013-02-16 08:32:00,23.4,23.2,30.24,North,-999,-999.0,-999.0,99,-99.99,,,-99.99,meteohub,2013-02-16 14:32:00,
2013-02-16 08:38:00,24.6,24.4,30.24,North,-999,-999.0,-999.0,99,-99.99,,,-99.99,meteohub,2013-02-16 14:38:00,
2013-02-16 08:45:00,26.8,26.6,30.23,North,-999,-999.0,-999.0,99,-99.99,,,-99.99,meteohub,2013-02-16 14:45:00,
2013-02-16 08:51:00,29.8,29.3,30.24,North,-999,-999.0,-999.0,98,-99.99,,,-99.99,meteohub,2013-02-16 14:51:00,
2013-02-16 08:57:00,30.7,29.3,30.23,North,-999,-999.0,-999.0,94,-99.99,,,-99.99,meteohub,2013-02-16 14:57:00,
2013-02-16 09:03:00,28.6,26.2,30.23,North,-999,-999.0,-999.0,91,-99.99,,,-99.99,meteohub,2013-02-16 15:03:00,
2013-02-16 09:09:00,28.0,25.7,30.23,North,-999,-999.0,-999.0,91,-99.99,,,-99.99,meteohub,2013-02-16 15:09:00,
2013-02-16 09:15:00,28.4,26.1,30.22,North,-999,-999.0,-999.0,91,-99.99,,,-99.99,meteohub,2013-02-16 15:15:00,
2013-02-16 09:21:00,28.8,25.9,30.22,North,-999,-999.0,-999.0,89,-99.99,,,-99.99,meteohub,2013-02-16 15:21:00,
2013-02-16 09:27:00,28.9,25.9,30.22,North,-999,-999.0,-999.0,88,-99.99,,,-99.99,meteohub,2013-02-16 15:27:00,
2013-02-16 09:32:00,28.9,25.9,30.22,North,-999,-999.0,-999.0,88,-99.99,,,-99.99,meteohub,2013-02-16 15:32:00,
2013-02-16 09:37:00,29.3,25.7,30.22,North,-999,-999.0,-999.0,86,-99.99,,,-99.99,meteohub,2013-02-16 15:37:00,
2013-02-16 09:42:00,28.9,25.0,30.22,North,-999,-999.0,-999.0,85,-99.99,,,-99.99,meteohub,2013-02-16 15:42:00,
2013-02-16 09:47:00,28.9,25.0,30.22,North,-999,-999.0,-999.0,85,-99.99,,,-99.99,meteohub,2013-02-16 15:47:00,
2013-02-16 09:52:00,29.5,25.5,30.22,North,-999,-999.0,-999.0,85,-99.99,,,-99.99,meteohub,2013-02-16 15:52:00,
2013-02-16 09:58:00,30.6,25.7,30.22,North,-999,-999.0,-999.0,82,-99.99,,,-99.99,meteohub,2013-02-16 15:58:00,
2013-02-16 10:04:00,31.1,24.4,30.22,North,-999,-999.0,-999.0,76,-99.99,,,-99.99,meteohub,2013-02-16 16:04:00,
2013-02-16 10:10:00,31.8,25.2,30.22,North,-999,-999.0,-999.0,76,-99.99,,,-99.99,meteohub,2013-02-16 16:10:00,
2013-02-16 10:16:00,32.2,24.4,30.22,North,-999,-999.0,-999.0,73,-99.99,,,-99.99,meteohub,2013-02-16 16:16:00,
2013-02-16 10:22:00,32.2,24.8,30.22,North,-999,-999.0,-999.0,74,-99.99,,,-99.99,meteohub,2013-02-16 16:22:00,
2013-02-16 10:27:00,32.0,23.4,30.22,North,-999,-999.0,-999.0,70,-99.99,,,-99.99,meteohub,2013-02-16 16:27:00,
2013-02-16 10:32:00,32.0,23.4,30.21,North,-999,-999.0,-999.0,70,-99.99,,,-99.99,meteohub,2013-02-16 16:32:00,
2013-02-16 10:37:00,32.4,24.3,30.21,North,-999,-999.0,-999.0,72,-99.99,,,-99.99,meteohub,2013-02-16 16:37:00,
2013-02-16 10:44:00,33.3,24.3,30.21,North,-999,-999.0,-999.0,69,-99.99,,,-99.99,meteohub,2013-02-16 16:44:00,
2013-02-16 10:50:00,33.3,23.9,30.21,North,-999,-999.0,-999.0,68,-99.99,,,-99.99,meteohub,2013-02-16 16:50:00,
2013-02-16 10:56:00,33.4,24.1,30.21,North,-999,-999.0,-999.0,68,-99.99,,,-99.99,meteohub,2013-02-16 16:56:00,
2013-02-16 11:02:00,33.8,24.4,30.21,North,-999,-999.0,-999.0,68,-99.99,,,-99.99,meteohub,2013-02-16 17:02:00,
2013-02-16 11:09:00,34.7,25.5,30.20,North,-999,-999.0,-999.0,69,-99.99,,,-99.99,meteohub,2013-02-16 17:09:00,
2013-02-16 11:15:00,34.2,24.6,30.21,North,-999,-999.0,-999.0,68,-99.99,,,-99.99,meteohub,2013-02-16 17:15:00,
2013-02-16 11:21:00,34.0,24.8,30.20,North,-999,-999.0,-999.0,69,-99.99,,,-99.99,meteohub,2013-02-16 17:21:00,
2013-02-16 11:27:00,34.5,25.7,30.19,North,-999,-999.0,-999.0,70,-99.99,,,-99.99,meteohub,2013-02-16 17:27:00,
2013-02-16 11:33:00,34.5,25.0,30.19,North,-999,-999.0,-999.0,68,-99.99,,,-99.99,meteohub,2013-02-16 17:33:00,
2013-02-16 11:39:00,34.7,25.2,30.19,North,-999,-999.0,-999.0,68,-99.99,,,-99.99,meteohub,2013-02-16 17:39:00,
2013-02-16 11:45:00,35.4,25.2,30.19,North,-999,-999.0,-999.0,66,-99.99,,,-99.99,meteohub,2013-02-16 17:45:00,
2013-02-16 11:52:00,36.1,25.9,30.18,North,-999,-999.0,-999.0,66,-99.99,,,-99.99,meteohub,2013-02-16 17:52:00,
2013-02-16 11:58:00,36.1,24.4,30.18,North,-999,-999.0,-999.0,62,-99.99,,,-99.99,meteohub,2013-02-16 17:58:00,
2013-02-16 12:04:00,35.1,24.1,30.17,North,-999,-999.0,-999.0,64,-99.99,,,-99.99,meteohub,2013-02-16 18:04:00,
2013-02-16 12:10:00,34.3,24.1,30.17,North,-999,-999.0,-999.0,66,-99.99,,,-99.99,meteohub,2013-02-16 18:10:00,
2013-02-16 12:16:00,34.2,24.1,30.17,North,-999,-999.0,-999.0,66,-99.99,,,-99.99,meteohub,2013-02-16 18:16:00,
2013-02-16 12:22:00,34.9,25.0,30.17,North,-999,-999.0,-999.0,67,-99.99,,,-99.99,meteohub,2013-02-16 18:22:00,
2013-02-16 12:27:00,34.9,24.6,30.16,North,-999,-999.0,-999.0,66,-99.99,,,-99.99,meteohub,2013-02-16 18:27:00,
2013-02-16 12:32:00,34.9,24.6,30.15,North,-999,-999.0,-999.0,66,-99.99,,,-99.99,meteohub,2013-02-16 18:32:00,
2013-02-16 12:37:00,35.1,24.4,30.15,North,-999,-999.0,-999.0,65,-99.99,,,-99.99,meteohub,2013-02-16 18:37:00,
2013-02-16 12:42:00,34.5,23.9,30.15,North,-999,-999.0,-999.0,65,-99.99,,,-99.99,meteohub,2013-02-16 18:42:00,
2013-02-16 12:50:00,34.2,25.0,30.14,North,-999,-999.0,-999.0,69,-99.99,,,-99.99,meteohub,2013-02-16 18:50:00,
2013-02-16 12:56:00,34.2,24.1,30.14,North,-999,-999.0,-999.0,66,-99.99,,,-99.99,meteohub,2013-02-16 18:56:00,
2013-02-16 13:02:00,33.4,23.4,30.13,North,-999,-999.0,-999.0,66,-99.99,,,-99.99,meteohub,2013-02-16 19:02:00,
2013-02-16 13:07:00,33.3,23.5,30.13,North,-999,-999.0,-999.0,67,-99.99,,,-99.99,meteohub,2013-02-16 19:07:00,
2013-02-16 13:14:00,33.6,23.9,30.12,North,-999,-999.0,-999.0,67,-99.99,,,-99.99,meteohub,2013-02-16 19:14:00,
2013-02-16 13:20:00,34.3,24.1,30.12,North,-999,-999.0,-999.0,66,-99.99,,,-99.99,meteohub,2013-02-16 19:20:00,
2013-02-16 13:26:00,34.2,23.2,30.12,North,-999,-999.0,-999.0,64,-99.99,,,-99.99,meteohub,2013-02-16 19:26:00,
2013-02-16 13:32:00,34.2,23.2,30.11,North,-999,-999.0,-999.0,64,-99.99,,,-99.99,meteohub,2013-02-16 19:32:00,
2013-02-16 13:39:00,33.8,24.4,30.11,North,-999,-999.0,-999.0,68,-99.99,,,-99.99,meteohub,2013-02-16 19:39:00,
2013-02-16 13:45:00,33.8,24.8,30.11,North,-999,-999.0,-999.0,69,-99.99,,,-99.99,meteohub,2013-02-16 19:45:00,
2013-02-16 13:51:00,33.4,23.4,30.11,North,-999,-999.0,-999.0,66,-99.99,,,-99.99,meteohub,2013-02-16 19:51:00,
2013-02-16 13:57:00,33.1,24.1,30.11,North,-999,-999.0,-999.0,69,-99.99,,,-99.99,meteohub,2013-02-16 19:57:00,
2013-02-16 14:03:00,32.9,23.9,30.11,North,-999,-999.0,-999.0,69,-99.99,,,-99.99,meteohub,2013-02-16 20:03:00,
2013-02-16 14:09:00,32.9,24.6,30.11,North,-999,-999.0,-999.0,71,-99.99,,,-99.99,meteohub,2013-02-16 20:09:00,
2013-02-16 14:15:00,32.9,24.3,30.10,North,-999,-999.0,-999.0,70,-99.99,,,-99.99,meteohub,2013-02-16 20:15:00,
2013-02-16 14:22:00,33.1,24.4,30.10,North,-999,-999.0,-999.0,70,-99.99,,,-99.99,meteohub,2013-02-16 20:22:00,
2013-02-16 14:28:00,33.3,24.6,30.10,North,-999,-999.0,-999.0,70,-99.99,,,-99.99,meteohub,2013-02-16 20:28:00,
2013-02-16 14:34:00,33.3,24.3,30.09,North,-999,-999.0,-999.0,69,-99.99,,,-99.99,meteohub,2013-02-16 20:34:00,
2013-02-16 14:40:00,33.3,24.3,30.09,North,-999,-999.0,-999.0,69,-99.99,,,-99.99,meteohub,2013-02-16 20:40:00,
2013-02-16 14:46:00,33.6,24.6,30.09,North,-999,-999.0,-999.0,69,-99.99,,,-99.99,meteohub,2013-02-16 20:46:00,
2013-02-16 14:52:00,33.8,24.1,30.09,North,-999,-999.0,-999.0,67,-99.99,,,-99.99,meteohub,2013-02-16 20:52:00,
2013-02-16 14:57:00,34.2,24.4,30.08,North,-999,-999.0,-999.0,67,-99.99,,,-99.99,meteohub,2013-02-16 20:57:00,
2013-02-16 15:02:00,34.7,24.8,30.08,North,-999,-999.0,-999.0,67,-99.99,,,-99.99,meteohub,2013-02-16 21:02:00,
2013-02-16 15:07:00,34.9,24.3,30.08,North,-999,-999.0,-999.0,65,-99.99,,,-99.99,meteohub,2013-02-16 21:07:00,
2013-02-16 15:12:00,35.1,24.4,30.08,North,-999,-999.0,-999.0,65,-99.99,,,-99.99,meteohub,2013-02-16 21:12:00,
2013-02-16 15:20:00,35.2,23.9,30.08,North,-999,-999.0,-999.0,63,-99.99,,,-99.99,meteohub,2013-02-16 21:20:00,
2013-02-16 15:26:00,35.2,23.9,30.08,North,-999,-999.0,-999.0,63,-99.99,,,-99.99,meteohub,2013-02-16 21:26:00,
2013-02-16 15:32:00,35.2,23.9,30.08,North,-999,-999.0,-999.0,63,-99.99,,,-99.99,meteohub,2013-02-16 21:32:00,
2013-02-16 15:37:00,35.1,21.0,30.08,North,-999,-999.0,-999.0,56,-99.99,,,-99.99,meteohub,2013-02-16 21:37:00,
2013-02-16 15:44:00,34.9,20.8,30.08,North,-999,-999.0,-999.0,56,-99.99,,,-99.99,meteohub,2013-02-16 21:44:00,
2013-02-16 15:51:00,34.9,21.2,30.08,North,-999,-999.0,-999.0,57,-99.99,,,-99.99,meteohub,2013-02-16 21:51:00,
2013-02-16 15:57:00,34.9,21.2,30.08,North,-999,-999.0,-999.0,57,-99.99,,,-99.99,meteohub,2013-02-16 21:57:00,
2013-02-16 16:02:00,35.1,21.4,30.08,North,-999,-999.0,-999.0,57,-99.99,,,-99.99,meteohub,2013-02-16 22:02:00,
2013-02-16 16:09:00,35.2,21.6,30.08,North,-999,-999.0,-999.0,57,-99.99,,,-99.99,meteohub,2013-02-16 22:09:00,
2013-02-16 16:15:00,35.2,21.2,30.08,North,-999,-999.0,-999.0,56,-99.99,,,-99.99,meteohub,2013-02-16 22:15:00,
2013-02-16 16:21:00,35.2,19.8,30.08,North,-999,-999.0,-999.0,53,-99.99,,,-99.99,meteohub,2013-02-16 22:21:00,
2013-02-16 16:27:00,34.9,19.4,30.08,North,-999,-999.0,-999.0,53,-99.99,,,-99.99,meteohub,2013-02-16 22:27:00,
2013-02-16 16:33:00,34.7,18.9,30.08,North,-999,-999.0,-999.0,52,-99.99,,,-99.99,meteohub,2013-02-16 22:33:00,
2013-02-16 16:39:00,34.5,17.2,30.08,North,-999,-999.0,-999.0,49,-99.99,,,-99.99,meteohub,2013-02-16 22:39:00,
2013-02-16 16:46:00,34.5,17.2,30.08,North,-999,-999.0,-999.0,49,-99.99,,,-99.99,meteohub,2013-02-16 22:46:00,
2013-02-16 16:52:00,34.5,17.8,30.08,North,-999,-999.0,-999.0,50,-99.99,,,-99.99,meteohub,2013-02-16 22:52:00,
2013-02-16 16:58:00,34.5,17.8,30.07,North,-999,-999.0,-999.0,50,-99.99,,,-99.99,meteohub,2013-02-16 22:58:00,
2013-02-16 17:04:00,34.3,17.6,30.08,North,-999,-999.0,-999.0,50,-99.99,,,-99.99,meteohub,2013-02-16 23:04:00,
2013-02-16 17:10:00,34.2,18.0,30.07,North,-999,-999.0,-999.0,51,-99.99,,,-99.99,meteohub,2013-02-16 23:10:00,
2013-02-16 17:16:00,34.2,18.3,30.07,North,-999,-999.0,-999.0,52,-99.99,,,-99.99,meteohub,2013-02-16 23:16:00,
2013-02-16 17:22:00,34.0,18.1,30.07,North,-999,-999.0,-999.0,52,-99.99,,,-99.99,meteohub,2013-02-16 23:22:00,
2013-02-16 17:27:00,33.8,18.0,30.08,North,-999,-999.0,-999.0,52,-99.99,,,-99.99,meteohub,2013-02-16 23:27:00,
2013-02-16 17:32:00,33.8,18.0,30.07,North,-999,-999.0,-999.0,52,-99.99,,,-99.99,meteohub,2013-02-16 23:32:00,
2013-02-16 17:37:00,33.8,17.6,30.07,North,-999,-999.0,-999.0,51,-99.99,,,-99.99,meteohub,2013-02-16 23:37:00,
2013-02-16 17:42:00,33.6,17.8,30.06,North,-999,-999.0,-999.0,52,-99.99,,,-99.99,meteohub,2013-02-16 23:42:00,
2013-02-16 17:47:00,33.4,18.1,30.07,North,-999,-999.0,-999.0,53,-99.99,,,-99.99,meteohub,2013-02-16 23:47:00,
2013-02-16 17:53:00,33.4,18.5,30.06,North,-999,-999.0,-999.0,54,-99.99,,,-99.99,meteohub,2013-02-16 23:53:00,
2013-02-16 17:59:00,33.3,18.9,30.06,North,-999,-999.0,-999.0,55,-99.99,,,-99.99,meteohub,2013-02-16 23:59:00,
2013-02-16 18:05:00,33.3,19.8,30.06,North,-999,-999.0,-999.0,57,-99.99,,,-99.99,meteohub,2013-02-17 00:05:00,
2013-02-16 18:11:00,33.3,20.5,30.06,North,-999,-999.0,-999.0,59,-99.99,,,-99.99,meteohub,2013-02-17 00:11:00,
2013-02-16 18:17:00,33.1,19.9,30.06,North,-999,-999.0,-999.0,58,-99.99,,,-99.99,meteohub,2013-02-17 00:17:00,
2013-02-16 18:22:00,33.1,20.3,30.06,North,-999,-999.0,-999.0,59,-99.99,,,-99.99,meteohub,2013-02-17 00:22:00,
2013-02-16 18:27:00,33.3,20.5,30.06,North,-999,-999.0,-999.0,59,-99.99,,,-99.99,meteohub,2013-02-17 00:27:00,
2013-02-16 18:32:00,33.3,20.5,30.06,North,-999,-999.0,-999.0,59,-99.99,,,-99.99,meteohub,2013-02-17 00:32:00,
2013-02-16 18:39:00,33.1,20.7,30.06,North,-999,-999.0,-999.0,60,-99.99,,,-99.99,meteohub,2013-02-17 00:39:00,
2013-02-16 18:45:00,33.1,21.0,30.05,North,-999,-999.0,-999.0,61,-99.99,,,-99.99,meteohub,2013-02-17 00:45:00,
2013-02-16 18:51:00,33.1,20.7,30.05,North,-999,-999.0,-999.0,60,-99.99,,,-99.99,meteohub,2013-02-17 00:51:00,
2013-02-16 18:57:00,33.1,20.7,30.05,North,-999,-999.0,-999.0,60,-99.99,,,-99.99,meteohub,2013-02-17 00:57:00,
2013-02-16 19:04:00,33.1,20.7,30.05,North,-999,-999.0,-999.0,60,-99.99,,,-99.99,meteohub,2013-02-17 01:04:00,
2013-02-16 19:10:00,33.3,21.2,30.05,North,-999,-999.0,-999.0,61,-99.99,,,-99.99,meteohub,2013-02-17 01:10:00,
2013-02-16 19:16:00,33.3,20.8,30.05,North,-999,-999.0,-999.0,60,-99.99,,,-99.99,meteohub,2013-02-17 01:16:00,
2013-02-16 19:22:00,33.3,20.5,30.04,North,-999,-999.0,-999.0,59,-99.99,,,-99.99,meteohub,2013-02-17 01:22:00,
2013-02-16 19:28:00,33.4,20.7,30.04,North,-999,-999.0,-999.0,59,-99.99,,,-99.99,meteohub,2013-02-17 01:28:00,
2013-02-16 19:34:00,33.4,20.7,30.04,North,-999,-999.0,-999.0,59,-99.99,,,-99.99,meteohub,2013-02-17 01:34:00,
2013-02-16 19:40:00,33.8,21.0,30.04,North,-999,-999.0,-999.0,59,-99.99,,,-99.99,meteohub,2013-02-17 01:40:00,
2013-02-16 19:47:00,33.4,20.7,30.04,North,-999,-999.0,-999.0,59,-99.99,,,-99.99,meteohub,2013-02-17 01:47:00,
2013-02-16 19:52:00,33.4,20.3,30.04,North,-999,-999.0,-999.0,58,-99.99,,,-99.99,meteohub,2013-02-17 01:52:00,
2013-02-16 19:57:00,33.3,20.1,30.04,North,-999,-999.0,-999.0,58,-99.99,,,-99.99,meteohub,2013-02-17 01:57:00,
2013-02-16 20:02:00,33.3,20.1,30.03,North,-999,-999.0,-999.0,58,-99.99,,,-99.99,meteohub,2013-02-17 02:02:00,
2013-02-16 20:07:00,33.3,20.1,30.04,North,-999,-999.0,-999.0,58,-99.99,,,-99.99,meteohub,2013-02-17 02:07:00,
2013-02-16 20:12:00,33.3,20.1,30.03,North,-999,-999.0,-999.0,58,-99.99,,,-99.99,meteohub,2013-02-17 02:12:00,
2013-02-16 20:17:00,33.3,20.1,30.04,North,-999,-999.0,-999.0,58,-99.99,,,-99.99,meteohub,2013-02-17 02:17:00,
2013-02-16 20:23:00,33.3,20.5,30.04,North,-999,-999.0,-999.0,59,-99.99,,,-99.99,meteohub,2013-02-17 02:23:00,
2013-02-16 20:29:00,33.3,20.5,30.04,North,-999,-999.0,-999.0,59,-99.99,,,-99.99,meteohub,2013-02-17 02:29:00,
2013-02-16 20:35:00,33.4,20.7,30.04,North,-999,-999.0,-999.0,59,-99.99,,,-99.99,meteohub,2013-02-17 02:35:00,
2013-02-16 20:41:00,33.3,20.8,30.03,North,-999,-999.0,-999.0,60,-99.99,,,-99.99,meteohub,2013-02-17 02:41:00,
2013-02-16 20:47:00,33.3,20.8,30.03,North,-999,-999.0,-999.0,60,-99.99,,,-99.99,meteohub,2013-02-17 02:47:00,
2013-02-16 20:52:00,33.4,21.0,30.03,North,-999,-999.0,-999.0,60,-99.99,,,-99.99,meteohub,2013-02-17 02:52:00,
2013-02-16 20:57:00,33.4,21.0,30.03,North,-999,-999.0,-999.0,60,-99.99,,,-99.99,meteohub,2013-02-17 02:57:00,
2013-02-16 21:02:00,33.4,20.7,30.03,North,-999,-999.0,-999.0,59,-99.99,,,-99.99,meteohub,2013-02-17 03:02:00,
2013-02-16 21:09:00,33.3,20.5,30.02,North,-999,-999.0,-999.0,59,-99.99,,,-99.99,meteohub,2013-02-17 03:09:00,
2013-02-16 21:15:00,33.3,20.5,30.02,North,-999,-999.0,-999.0,59,-99.99,,,-99.99,meteohub,2013-02-17 03:15:00,
2013-02-16 21:21:00,33.3,20.5,30.02,North,-999,-999.0,-999.0,59,-99.99,,,-99.99,meteohub,2013-02-17 03:21:00,
2013-02-16 21:27:00,33.3,20.8,30.02,North,-999,-999.0,-999.0,60,-99.99,,,-99.99,meteohub,2013-02-17 03:27:00,
2013-02-16 21:34:00,33.3,20.8,30.02,North,-999,-999.0,-999.0,60,-99.99,,,-99.99,meteohub,2013-02-17 03:34:00,
2013-02-16 21:40:00,33.3,20.8,30.02,North,-999,-999.0,-999.0,60,-99.99,,,-99.99,meteohub,2013-02-17 03:40:00,
2013-02-16 21:46:00,33.3,20.8,30.02,North,-999,-999.0,-999.0,60,-99.99,,,-99.99,meteohub,2013-02-17 03:46:00,
2013-02-16 21:52:00,33.3,20.8,30.02,North,-999,-999.0,-999.0,60,-99.99,,,-99.99,meteohub,2013-02-17 03:52:00,
2013-02-16 21:58:00,33.3,20.8,30.02,North,-999,-999.0,-999.0,60,-99.99,,,-99.99,meteohub,2013-02-17 03:58:00,
2013-02-16 22:04:00,33.3,20.8,30.02,North,-999,-999.0,-999.0,60,-99.99,,,-99.99,meteohub,2013-02-17 04:04:00,
2013-02-16 22:10:00,33.3,20.8,30.02,North,-999,-999.0,-999.0,60,-99.99,,,-99.99,meteohub,2013-02-17 04:10:00,
2013-02-16 22:17:00,33.4,21.0,30.02,North,-999,-999.0,-999.0,60,-99.99,,,-99.99,meteohub,2013-02-17 04:17:00,
2013-02-16 22:23:00,33.4,21.0,30.01,North,-999,-999.0,-999.0,60,-99.99,,,-99.99,meteohub,2013-02-17 04:23:00,
2013-02-16 22:29:00,33.4,20.7,30.02,North,-999,-999.0,-999.0,59,-99.99,,,-99.99,meteohub,2013-02-17 04:29:00,
2013-02-16 22:35:00,33.4,20.7,30.02,North,-999,-999.0,-999.0,59,-99.99,,,-99.99,meteohub,2013-02-17 04:35:00,
2013-02-16 22:41:00,33.4,20.7,30.02,North,-999,-999.0,-999.0,59,-99.99,,,-99.99,meteohub,2013-02-17 04:41:00,
2013-02-16 22:47:00,33.4,20.7,30.02,North,-999,-999.0,-999.0,59,-99.99,,,-99.99,meteohub,2013-02-17 04:47:00,
2013-02-16 22:52:00,33.4,20.7,30.02,North,-999,-999.0,-999.0,59,-99.99,,,-99.99,meteohub,2013-02-17 04:52:00,
2013-02-16 22:57:00,33.4,20.7,30.02,North,-999,-999.0,-999.0,59,-99.99,,,-99.99,meteohub,2013-02-17 04:57:00,
2013-02-16 23:00:00,33.4,20.7,30.01,North,-999,-999.0,-999.0,59,-99.99,,,-99.99,meteohub,2013-02-17 05:00:00,
2013-02-16 23:02:00,33.4,21.0,30.01,North,-999,-999.0,-999.0,60,-99.99,,,-99.99,meteohub,2013-02-17 05:02:00,
2013-02-16 23:08:00,33.4,21.0,30.01,North,-999,-999.0,-999.0,60,-99.99,,,-99.99,meteohub,2013-02-17 05:08:00,
2013-02-16 23:15:00,33.4,21.0,30.01,North,-999,-999.0,-999.0,60,-99.99,,,-99.99,meteohub,2013-02-17 05:15:00,
2013-02-16 23:21:00,33.4,21.4,30.00,North,-999,-999.0,-999.0,61,-99.99,,,-99.99,meteohub,2013-02-17 05:21:00,
2013-02-16 23:27:00,33.4,21.4,30.01,North,-999,-999.0,-999.0,61,-99.99,,,-99.99,meteohub,2013-02-17 05:27:00,
2013-02-16 23:32:00,33.4,21.4,30.00,North,-999,-999.0,-999.0,61,-99.99,,,-99.99,meteohub,2013-02-17 05:32:00,
2013-02-16 23:39:00,33.4,21.7,30.00,North,-999,-999.0,-999.0,62,-99.99,,,-99.99,meteohub,2013-02-17 05:39:00,
2013-02-16 23:45:00,33.8,22.1,30.00,North,-999,-999.0,-999.0,62,-99.99,,,-99.99,meteohub,2013-02-17 05:45:00,
2013-02-16 23:51:00,33.3,21.7,30.00,North,-999,-999.0,-999.0,62,-99.99,,,-99.99,meteohub,2013-02-17 05:51:00,
2013-02-16 23:57:00,33.3,22.1,30.00,North,-999,-999.0,-999.0,63,-99.99,,,-99.99,meteohub,2013-02-17 05:57:00,